createdAt,value
2023-02-03T00:03:33.598Z,9.69
2023-02-03T00:08:36.933Z,9.78
2023-02-03T00:13:39.533Z,9.74
2023-02-03T00:18:43.482Z,9.77
2023-02-03T00:23:46.086Z,9.85
2023-02-03T00:28:48.736Z,9.92
2023-02-03T00:33:57.309Z,9.94
2023-02-03T00:39:01.322Z,9.89
2023-02-03T00:44:04.025Z,9.87
2023-02-03T00:49:08.080Z,9.91
2023-02-03T00:54:10.946Z,9.97
2023-02-03T00:59:14.047Z,9.95
2023-02-03T01:04:18.043Z,10.00
2023-02-03T01:09:20.625Z,10.04
2023-02-03T01:14:23.169Z,10.04
2023-02-03T01:19:27.253Z,9.83
2023-02-03T01:24:30.464Z,10.02
2023-02-03T01:29:33.081Z,10.04
2023-02-03T01:34:37.149Z,10.07
2023-02-03T01:39:39.719Z,10.07
2023-02-03T01:44:45.917Z,10.03
2023-02-03T01:49:54.078Z,10.09
2023-02-03T01:55:00.153Z,10.08
2023-02-03T02:05:42.556Z,10.10
2023-02-03T02:10:46.590Z,9.86
2023-02-03T02:15:55.822Z,9.96
2023-02-03T02:21:23.106Z,10.02
2023-02-03T02:26:44.664Z,9.85
2023-02-03T02:32:19.436Z,10.09
2023-02-03T02:37:30.257Z,10.08
2023-02-03T02:49:02.464Z,10.08
2023-02-03T02:54:10.047Z,10.02
2023-02-03T02:59:13.720Z,10.11
2023-02-03T03:04:23.115Z,10.14
2023-02-03T03:09:35.866Z,10.09
2023-02-03T03:14:42.221Z,10.06
2023-02-03T03:19:51.735Z,10.07
2023-02-03T03:25:00.974Z,9.88
2023-02-03T03:30:08.945Z,9.89
2023-02-03T03:35:13.546Z,9.81
2023-02-03T03:40:23.635Z,10.04
2023-02-03T03:45:32.121Z,10.04
2023-02-03T03:50:40.403Z,9.98
2023-02-03T03:55:48.099Z,10.05
2023-02-03T04:00:51.934Z,10.08
2023-02-03T04:05:55.817Z,10.11
2023-02-03T04:10:58.378Z,9.99
2023-02-03T04:16:01.035Z,10.06
2023-02-03T04:21:05.223Z,10.05
2023-02-03T04:26:07.773Z,10.09
2023-02-03T04:31:10.459Z,10.08
2023-02-03T04:36:16.125Z,10.13
2023-02-03T04:41:19.192Z,10.09
2023-02-03T04:46:22.314Z,10.13
2023-02-03T04:51:26.206Z,10.13
2023-02-03T04:56:29.188Z,10.05
2023-02-03T05:01:31.865Z,10.11
2023-02-03T05:06:35.803Z,10.08
2023-02-03T05:11:38.831Z,10.06
2023-02-03T05:16:41.473Z,10.07
2023-02-03T05:21:45.377Z,10.14
2023-02-03T05:26:47.940Z,10.19
2023-02-03T05:31:50.627Z,10.11
2023-02-03T05:36:54.580Z,10.21
2023-02-03T05:41:58.488Z,10.18
2023-02-03T05:47:01.142Z,10.11
2023-02-03T05:52:05.100Z,10.12
2023-02-03T05:57:07.658Z,10.18
2023-02-03T06:02:10.211Z,10.15
2023-02-03T06:07:14.089Z,10.06
2023-02-03T06:12:16.806Z,10.16
2023-02-03T06:17:19.732Z,10.16
2023-02-03T06:22:23.617Z,10.17
2023-02-03T06:27:26.220Z,10.15
2023-02-03T06:32:29.285Z,10.30
2023-02-03T06:37:33.303Z,10.37
2023-02-03T06:42:35.848Z,10.54
2023-02-03T06:47:41.100Z,10.51
2023-02-03T06:52:45.131Z,10.43
2023-02-03T06:57:49.258Z,10.27
2023-02-03T07:02:55.128Z,10.31
2023-02-03T07:07:59.356Z,10.32
2023-02-03T07:13:05.677Z,10.30
2023-02-03T07:18:08.358Z,10.31
2023-02-03T07:23:12.236Z,10.30
2023-02-03T07:28:15.409Z,10.36
2023-02-03T07:33:17.969Z,10.35
2023-02-03T07:38:22.197Z,10.32
2023-02-03T07:43:25.218Z,10.37
2023-02-03T07:48:27.765Z,10.00
2023-02-03T07:53:31.870Z,10.38
2023-02-03T07:58:34.853Z,10.37
2023-02-03T08:03:37.417Z,10.36
2023-02-03T08:08:41.968Z,10.39
2023-02-03T08:13:44.518Z,10.39
2023-02-03T08:18:47.221Z,10.45
2023-02-03T08:23:51.133Z,10.49
2023-02-03T08:28:53.717Z,10.52
2023-02-03T08:33:56.301Z,10.50
2023-02-03T08:39:00.203Z,10.55
2023-02-03T08:44:03.177Z,10.45
2023-02-03T08:49:06.214Z,10.57
2023-02-03T08:54:10.126Z,10.60
2023-02-03T08:59:13.289Z,10.58
2023-02-03T09:04:19.144Z,10.61
2023-02-03T09:09:23.884Z,10.62
2023-02-03T09:14:27.033Z,10.62
2023-02-03T09:19:29.842Z,10.66
2023-02-03T09:24:33.738Z,10.69
2023-02-03T09:29:36.354Z,10.72
2023-02-03T09:34:39.747Z,10.79
2023-02-03T09:39:43.637Z,10.74
2023-02-03T09:44:52.646Z,10.72
2023-02-03T09:49:59.725Z,10.71
2023-02-03T09:55:06.653Z,10.78
2023-02-03T10:00:17.950Z,10.69
2023-02-03T10:05:26.210Z,10.82
2023-02-03T10:10:39.697Z,10.85
2023-02-03T10:16:06.974Z,10.88
2023-02-03T10:21:16.267Z,10.86
2023-02-03T10:26:24.689Z,10.95
2023-02-03T10:31:29.339Z,10.97
2023-02-03T10:36:43.535Z,10.98
2023-02-03T10:41:48.350Z,10.92
2023-02-03T10:46:50.897Z,10.96
2023-02-03T10:51:56.365Z,11.00
2023-02-03T10:57:07.648Z,10.93
2023-02-03T11:02:12.039Z,10.97
2023-02-03T11:07:25.238Z,10.99
2023-02-03T11:12:29.128Z,11.01
2023-02-03T11:17:32.989Z,11.05
2023-02-03T11:22:38.673Z,11.03
2023-02-03T11:27:43.209Z,11.03
2023-02-03T11:32:48.483Z,10.95
2023-02-03T11:37:53.095Z,11.03
2023-02-03T11:43:03.844Z,11.08
2023-02-03T11:48:17.801Z,11.08
2023-02-03T11:53:30.458Z,11.17
2023-02-03T11:59:04.044Z,11.19
2023-02-03T12:04:25.280Z,11.15
2023-02-03T12:09:40.302Z,11.24
2023-02-03T12:14:53.585Z,11.27
2023-02-03T12:20:07.524Z,11.32
2023-02-03T12:25:26.218Z,11.35
2023-02-03T12:30:35.923Z,11.38
2023-02-03T12:35:46.199Z,11.38
2023-02-03T12:40:55.122Z,11.41
2023-02-03T12:46:07.229Z,11.44
2023-02-03T12:51:16.193Z,11.55
2023-02-03T12:56:24.118Z,11.52
2023-02-03T13:01:35.374Z,11.44
2023-02-03T13:06:48.225Z,11.49
2023-02-03T13:11:57.792Z,11.47
2023-02-03T13:17:08.989Z,11.46
2023-02-03T13:22:13.786Z,11.47
2023-02-03T13:27:31.145Z,11.25
2023-02-03T13:32:55.261Z,11.46
2023-02-03T13:38:20.789Z,11.49
2023-02-03T13:43:38.256Z,11.42
2023-02-03T13:48:46.523Z,11.45
2023-02-03T13:53:50.669Z,11.51
2023-02-03T13:59:01.784Z,11.52
2023-02-03T14:04:08.222Z,11.48
2023-02-03T14:09:21.729Z,11.53
2023-02-03T14:15:02.951Z,11.50
2023-02-03T14:20:51.270Z,11.44
2023-02-03T14:25:56.934Z,10.96
2023-02-03T14:31:10.508Z,10.67
2023-02-03T14:36:29.889Z,10.64
2023-02-03T14:41:46.776Z,10.60
2023-02-03T14:47:00.299Z,10.57
2023-02-03T14:52:23.379Z,10.55
2023-02-03T14:57:36.439Z,10.57
2023-02-03T15:03:19.802Z,10.62
2023-02-03T15:08:40.747Z,10.69
2023-02-03T15:13:43.935Z,10.68
2023-02-03T15:18:47.056Z,10.68
2023-02-03T15:23:51.893Z,10.77
2023-02-03T15:28:55.664Z,10.79
2023-02-03T15:34:00.754Z,10.78
2023-02-03T15:39:13.972Z,10.79
2023-02-03T15:44:25.934Z,10.78
2023-02-03T15:49:31.448Z,10.68
2023-02-03T15:54:41.040Z,10.84
2023-02-03T15:59:47.369Z,10.80
2023-02-03T16:04:51.154Z,10.73
2023-02-03T16:09:56.415Z,10.75
2023-02-03T16:15:00.605Z,10.73
2023-02-03T16:20:22.718Z,10.68
2023-02-03T16:25:29.359Z,10.68
2023-02-03T16:30:49.839Z,10.60
2023-02-03T16:36:09.898Z,10.69
2023-02-03T16:41:35.908Z,10.72
2023-02-03T16:46:56.428Z,10.68
2023-02-03T16:51:59.063Z,10.65
2023-02-03T16:57:02.967Z,10.71
2023-02-03T17:02:05.550Z,10.68
2023-02-03T17:07:08.162Z,10.70
2023-02-03T17:12:13.118Z,10.67
2023-02-03T17:17:16.033Z,10.68
2023-02-03T17:22:18.711Z,10.68
2023-02-03T17:27:22.630Z,10.59
2023-02-03T17:32:25.200Z,10.55
2023-02-03T17:37:27.732Z,10.54
2023-02-03T17:58:19.207Z,10.43
2023-02-03T18:03:21.753Z,10.38
2023-02-03T18:08:25.364Z,10.39
2023-02-03T18:13:32.605Z,10.36
2023-02-03T18:18:36.071Z,10.33
2023-02-03T18:23:39.190Z,10.29
2023-02-03T18:28:43.041Z,10.32
2023-02-03T18:33:47.586Z,10.24
2023-02-03T18:38:50.238Z,10.20
2023-02-03T18:43:54.502Z,10.23
2023-02-03T18:48:57.242Z,10.18
2023-02-03T18:54:00.429Z,10.27
2023-02-03T18:59:09.425Z,10.15
2023-02-03T19:04:13.946Z,10.13
2023-02-03T19:09:17.706Z,10.00
2023-02-03T19:14:23.410Z,9.93
2023-02-03T19:19:25.962Z,9.89
2023-02-03T19:24:28.533Z,9.93
2023-02-03T19:29:32.470Z,9.91
2023-02-03T19:34:35.192Z,9.97
2023-02-03T19:39:38.472Z,9.99
2023-02-03T19:44:42.560Z,10.00
2023-02-03T19:49:45.087Z,10.08
2023-02-03T19:54:47.664Z,10.05
2023-02-03T19:59:52.820Z,10.12
2023-02-03T20:05:06.198Z,10.11
2023-02-03T20:10:10.928Z,10.09
2023-02-03T20:15:15.043Z,10.07
2023-02-03T20:20:26.869Z,10.11
2023-02-03T20:25:29.493Z,10.01
2023-02-03T20:30:33.993Z,9.93
2023-02-03T20:35:38.235Z,10.00
2023-02-03T20:40:40.764Z,9.99
2023-02-03T20:45:46.738Z,10.09
2023-02-03T20:50:50.166Z,10.06
2023-02-03T20:55:58.405Z,10.05
2023-02-03T21:01:03.850Z,9.97
2023-02-03T21:06:14.155Z,10.04
2023-02-03T21:11:19.533Z,10.00
2023-02-03T21:16:27.443Z,10.05
2023-02-03T21:21:35.500Z,10.02
2023-02-03T21:26:38.481Z,9.49
2023-02-03T21:31:45.756Z,9.96
2023-02-03T21:36:48.335Z,10.01
2023-02-03T21:41:50.872Z,10.06
2023-02-03T21:46:54.798Z,10.08
2023-02-03T21:51:57.415Z,10.01
2023-02-03T21:57:01.653Z,9.99
2023-02-03T22:02:36.694Z,10.03
2023-02-03T22:07:39.860Z,10.06
2023-02-03T22:12:42.396Z,10.02
2023-02-03T22:17:48.131Z,9.97
2023-02-03T22:22:50.679Z,10.00
2023-02-03T22:27:53.304Z,9.97
2023-02-03T22:32:57.934Z,9.30
2023-02-03T22:38:00.514Z,9.90
2023-02-03T22:43:03.104Z,9.97
2023-02-03T22:48:07.654Z,9.96
2023-02-03T22:53:10.247Z,10.00
2023-02-03T22:58:12.851Z,9.96
2023-02-03T23:03:17.323Z,9.97
2023-02-03T23:08:19.886Z,9.94
2023-02-03T23:13:22.430Z,9.89
2023-02-03T23:18:26.344Z,9.93
2023-02-03T23:23:28.910Z,9.91
2023-02-03T23:28:32.143Z,9.91
2023-02-03T23:33:36.006Z,9.93
2023-02-03T23:38:38.517Z,9.90
2023-02-03T23:43:41.064Z,9.84
2023-02-03T23:48:45.124Z,9.84
2023-02-03T23:53:47.691Z,9.87
2023-02-03T23:58:50.213Z,9.77
